sensor_id;sensor_type;location;lat;lon;timestamp;pressure;altitude;pressure_sealevel;temperature;humidity
61026;BME280;46911;32.650;-16.902;2023-11-22T00:01:16;101997.69;;;17.76;44.41
61026;BME280;46911;32.650;-16.902;2023-11-22T00:03:22;101993.28;;;17.74;44.89
61026;BME280;46911;32.650;-16.902;2023-11-22T00:05:24;101994.38;;;17.72;44.66
61026;BME280;46911;32.650;-16.902;2023-11-22T00:07:25;101983.94;;;17.67;44.99
61026;BME280;46911;32.650;-16.902;2023-11-22T00:09:29;101974.09;;;17.66;45.58
61026;BME280;46911;32.650;-16.902;2023-11-22T00:11:32;101973.25;;;17.66;45.50
61026;BME280;46911;32.650;-16.902;2023-11-22T00:13:35;101965.28;;;17.64;45.29
61026;BME280;46911;32.650;-16.902;2023-11-22T00:15:39;101940.75;;;17.56;45.48
61026;BME280;46911;32.650;-16.902;2023-11-22T00:17:40;101947.38;;;17.63;45.01
61026;BME280;46911;32.650;-16.902;2023-11-22T00:19:42;101951.56;;;17.67;44.00
61026;BME280;46911;32.650;-16.902;2023-11-22T00:21:45;101946.28;;;17.66;43.55
61026;BME280;46911;32.650;-16.902;2023-11-22T00:23:49;101939.16;;;17.65;43.16
61026;BME280;46911;32.650;-16.902;2023-11-22T00:25:50;101941.72;;;17.66;43.44
61026;BME280;46911;32.650;-16.902;2023-11-22T00:27:53;101934.88;;;17.73;43.79
61026;BME280;46911;32.650;-16.902;2023-11-22T00:29:56;101935.00;;;17.72;43.84
61026;BME280;46911;32.650;-16.902;2023-11-22T00:32:00;101922.63;;;17.69;43.87
61026;BME280;46911;32.650;-16.902;2023-11-22T00:34:01;101925.91;;;17.73;43.78
61026;BME280;46911;32.650;-16.902;2023-11-22T00:36:02;101924.59;;;17.79;43.37
61026;BME280;46911;32.650;-16.902;2023-11-22T00:38:05;101925.06;;;17.72;43.63
61026;BME280;46911;32.650;-16.902;2023-11-22T00:40:06;101928.75;;;17.71;44.07
61026;BME280;46911;32.650;-16.902;2023-11-22T00:42:21;101918.44;;;17.65;44.34
61026;BME280;46911;32.650;-16.902;2023-11-22T00:44:24;101919.56;;;17.63;44.56
61026;BME280;46911;32.650;-16.902;2023-11-22T00:46:25;101920.66;;;17.60;44.79
61026;BME280;46911;32.650;-16.902;2023-11-22T00:48:26;101927.03;;;17.59;44.81
61026;BME280;46911;32.650;-16.902;2023-11-22T00:50:29;101903.22;;;17.53;44.84
61026;BME280;46911;32.650;-16.902;2023-11-22T00:52:31;101907.38;;;17.57;45.12
61026;BME280;46911;32.650;-16.902;2023-11-22T00:54:32;101908.59;;;17.53;45.55
61026;BME280;46911;32.650;-16.902;2023-11-22T00:56:33;101904.81;;;17.44;45.82
61026;BME280;46911;32.650;-16.902;2023-11-22T00:58:35;101922.72;;;17.45;45.77
61026;BME280;46911;32.650;-16.902;2023-11-22T01:00:39;101915.47;;;17.46;46.01
61026;BME280;46911;32.650;-16.902;2023-11-22T01:02:42;101910.44;;;17.41;45.92
61026;BME280;46911;32.650;-16.902;2023-11-22T01:04:43;101914.13;;;17.40;46.39
61026;BME280;46911;32.650;-16.902;2023-11-22T01:06:44;101912.78;;;17.34;46.59
61026;BME280;46911;32.650;-16.902;2023-11-22T01:08:47;101900.84;;;17.26;46.74
61026;BME280;46911;32.650;-16.902;2023-11-22T01:10:48;101907.47;;;17.33;46.21
61026;BME280;46911;32.650;-16.902;2023-11-22T01:12:49;101905.16;;;17.28;46.44
61026;BME280;46911;32.650;-16.902;2023-11-22T01:14:53;101904.16;;;17.29;46.60
61026;BME280;46911;32.650;-16.902;2023-11-22T01:16:54;101901.34;;;17.31;46.80
61026;BME280;46911;32.650;-16.902;2023-11-22T01:18:57;101892.13;;;17.22;46.72
61026;BME280;46911;32.650;-16.902;2023-11-22T01:20:58;101896.28;;;17.26;47.24
61026;BME280;46911;32.650;-16.902;2023-11-22T01:22:59;101895.56;;;17.24;47.44
61026;BME280;46911;32.650;-16.902;2023-11-22T01:25:00;101891.03;;;17.24;47.23
61026;BME280;46911;32.650;-16.902;2023-11-22T01:27:04;101896.22;;;17.28;47.50
61026;BME280;46911;32.650;-16.902;2023-11-22T01:29:08;101876.81;;;17.22;47.76
61026;BME280;46911;32.650;-16.902;2023-11-22T01:31:12;101884.53;;;17.27;47.18
61026;BME280;46911;32.650;-16.902;2023-11-22T01:33:16;101855.34;;;17.10;47.10
61026;BME280;46911;32.650;-16.902;2023-11-22T01:35:23;101890.44;;;17.32;47.28
61026;BME280;46911;32.650;-16.902;2023-11-22T01:37:26;101885.81;;;17.34;47.37
61026;BME280;46911;32.650;-16.902;2023-11-22T01:39:27;101890.19;;;17.35;47.22
61026;BME280;46911;32.650;-16.902;2023-11-22T01:41:31;101884.56;;;17.38;47.22
61026;BME280;46911;32.650;-16.902;2023-11-22T01:43:34;101881.88;;;17.38;47.20
61026;BME280;46911;32.650;-16.902;2023-11-22T01:45:35;101886.28;;;17.39;47.10
61026;BME280;46911;32.650;-16.902;2023-11-22T01:47:38;101883.94;;;17.35;47.44
61026;BME280;46911;32.650;-16.902;2023-11-22T01:49:40;101888.84;;;17.30;47.26
61026;BME280;46911;32.650;-16.902;2023-11-22T01:51:41;101886.16;;;17.30;47.01
61026;BME280;46911;32.650;-16.902;2023-11-22T01:53:42;101887.25;;;17.27;47.26
61026;BME280;46911;32.650;-16.902;2023-11-22T01:55:44;101893.59;;;17.26;47.03
61026;BME280;46911;32.650;-16.902;2023-11-22T01:57:47;101893.09;;;17.21;47.25
61026;BME280;46911;32.650;-16.902;2023-11-22T01:59:48;101899.13;;;17.24;47.54
61026;BME280;46911;32.650;-16.902;2023-11-22T02:01:55;101891.53;;;17.18;48.25
61026;BME280;46911;32.650;-16.902;2023-11-22T02:03:57;101894.81;;;17.22;48.18
61026;BME280;46911;32.650;-16.902;2023-11-22T02:05:58;101894.59;;;17.25;48.11
61026;BME280;46911;32.650;-16.902;2023-11-22T02:08:02;101886.97;;;17.19;48.63
61026;BME280;46911;32.650;-16.902;2023-11-22T02:10:07;101894.59;;;17.25;48.63
61026;BME280;46911;32.650;-16.902;2023-11-22T02:12:10;101888.47;;;17.23;48.98
61026;BME280;46911;32.650;-16.902;2023-11-22T02:14:11;101892.13;;;17.22;49.65
61026;BME280;46911;32.650;-16.902;2023-11-22T02:16:17;101889.69;;;17.19;49.06
61026;BME280;46911;32.650;-16.902;2023-11-22T02:18:19;101875.81;;;17.12;49.08
61026;BME280;46911;32.650;-16.902;2023-11-22T02:20:24;101880.75;;;17.18;49.17
61026;BME280;46911;32.650;-16.902;2023-11-22T02:22:29;101868.34;;;17.16;49.44
61026;BME280;46911;32.650;-16.902;2023-11-22T02:24:30;101871.78;;;17.18;49.30
61026;BME280;46911;32.650;-16.902;2023-11-22T02:26:33;101866.25;;;17.19;49.35
61026;BME280;46911;32.650;-16.902;2023-11-22T02:28:34;101871.78;;;17.18;49.82
61026;BME280;46911;32.650;-16.902;2023-11-22T02:30:43;101858.03;;;17.10;50.27
61026;BME280;46911;32.650;-16.902;2023-11-22T02:32:50;101869.31;;;17.15;50.41
61026;BME280;46911;32.650;-16.902;2023-11-22T02:34:54;101858.16;;;17.08;50.08
61026;BME280;46911;32.650;-16.902;2023-11-22T02:36:59;101869.56;;;17.12;50.42
61026;BME280;46911;32.650;-16.902;2023-11-22T02:39:01;101876.91;;;17.10;50.09
61026;BME280;46911;32.650;-16.902;2023-11-22T02:41:03;101855.81;;;17.03;50.08
61026;BME280;46911;32.650;-16.902;2023-11-22T02:43:06;101863.56;;;17.08;49.96
61026;BME280;46911;32.650;-16.902;2023-11-22T02:45:13;101868.06;;;17.07;49.44
61026;BME280;46911;32.650;-16.902;2023-11-22T02:47:16;101863.88;;;17.03;48.73
61026;BME280;46911;32.650;-16.902;2023-11-22T02:49:17;101861.81;;;17.07;48.43
61026;BME280;46911;32.650;-16.902;2023-11-22T02:51:18;101834.75;;;16.97;49.06
61026;BME280;46911;32.650;-16.902;2023-11-22T02:53:20;101864.66;;;17.17;48.04
61026;BME280;46911;32.650;-16.902;2023-11-22T02:55:23;101838.78;;;17.03;48.78
61026;BME280;46911;32.650;-16.902;2023-11-22T02:57:25;101866.63;;;17.26;49.78
61026;BME280;46911;32.650;-16.902;2023-11-22T02:59:29;101881.38;;;17.33;49.83
61026;BME280;46911;32.650;-16.902;2023-11-22T03:01:29;101888.59;;;17.33;50.16
61026;BME280;46911;32.650;-16.902;2023-11-22T03:03:30;101883.56;;;17.28;50.48
61026;BME280;46911;32.650;-16.902;2023-11-22T03:05:31;101884.53;;;17.27;50.77
61026;BME280;46911;32.650;-16.902;2023-11-22T03:07:35;101873.25;;;17.22;51.14
61026;BME280;46911;32.650;-16.902;2023-11-22T03:09:36;101873.75;;;17.16;51.22
61026;BME280;46911;32.650;-16.902;2023-11-22T03:11:37;101853.75;;;17.07;51.12
61026;BME280;46911;32.650;-16.902;2023-11-22T03:13:39;101873.84;;;17.14;51.68
61026;BME280;46911;32.650;-16.902;2023-11-22T03:15:40;101882.06;;;17.13;51.92
61026;BME280;46911;32.650;-16.902;2023-11-22T03:17:41;101874.97;;;17.12;52.04
61026;BME280;46911;32.650;-16.902;2023-11-22T03:19:44;101881.53;;;17.07;52.15
61026;BME280;46911;32.650;-16.902;2023-11-22T03:21:47;101887.69;;;17.10;52.00
61026;BME280;46911;32.650;-16.902;2023-11-22T03:23:47;101890.63;;;17.06;52.05
61026;BME280;46911;32.650;-16.902;2023-11-22T03:25:53;101892.06;;;16.99;52.22
61026;BME280;46911;32.650;-16.902;2023-11-22T03:27:53;101905.94;;;17.06;52.25
61026;BME280;46911;32.650;-16.902;2023-11-22T03:30:01;101897.00;;;17.05;52.02
61026;BME280;46911;32.650;-16.902;2023-11-22T03:32:03;101898.22;;;17.01;51.91
61026;BME280;46911;32.650;-16.902;2023-11-22T03:34:04;101893.06;;;16.98;51.79
61026;BME280;46911;32.650;-16.902;2023-11-22T03:36:07;101907.91;;;17.04;51.94
61026;BME280;46911;32.650;-16.902;2023-11-22T03:38:11;101900.91;;;17.01;51.73
61026;BME280;46911;32.650;-16.902;2023-11-22T03:40:12;101904.13;;;17.06;51.57
61026;BME280;46911;32.650;-16.902;2023-11-22T03:42:16;101895.78;;;17.10;51.96
61026;BME280;46911;32.650;-16.902;2023-11-22T03:44:19;101891.41;;;17.20;51.72
61026;BME280;46911;32.650;-16.902;2023-11-22T03:46:23;101901.19;;;17.21;52.27
61026;BME280;46911;32.650;-16.902;2023-11-22T03:48:23;101910.28;;;17.20;52.50
61026;BME280;46911;32.650;-16.902;2023-11-22T03:50:26;101921.28;;;17.17;52.19
61026;BME280;46911;32.650;-16.902;2023-11-22T03:52:32;101927.03;;;17.12;52.36
61026;BME280;46911;32.650;-16.902;2023-11-22T03:54:34;101912.41;;;17.03;51.98
61026;BME280;46911;32.650;-16.902;2023-11-22T03:56:35;101924.78;;;17.06;52.29
61026;BME280;46911;32.650;-16.902;2023-11-22T03:58:39;101918.03;;;17.00;52.33
61026;BME280;46911;32.650;-16.902;2023-11-22T04:00:47;101921.59;;;17.01;52.39
61026;BME280;46911;32.650;-16.902;2023-11-22T04:02:48;101926.13;;;17.00;51.55
61026;BME280;46911;32.650;-16.902;2023-11-22T04:04:49;101906.25;;;16.90;50.79
61026;BME280;46911;32.650;-16.902;2023-11-22T04:06:53;101926.13;;;17.00;50.38
61026;BME280;46911;32.650;-16.902;2023-11-22T04:08:58;101932.50;;;16.99;50.55
61026;BME280;46911;32.650;-16.902;2023-11-22T04:11:03;101934.84;;;17.04;50.23
61026;BME280;46911;32.650;-16.902;2023-11-22T04:13:04;101941.09;;;17.04;50.55
61026;BME280;46911;32.650;-16.902;2023-11-22T04:15:05;101929.78;;;16.99;50.55
61026;BME280;46911;32.650;-16.902;2023-11-22T04:17:11;101931.66;;;16.99;50.93
61026;BME280;46911;32.650;-16.902;2023-11-22T04:19:15;101931.66;;;16.99;51.52
61026;BME280;46911;32.650;-16.902;2023-11-22T04:21:16;101935.44;;;16.96;51.43
61026;BME280;46911;32.650;-16.902;2023-11-22T04:23:17;101925.50;;;16.97;51.74
61026;BME280;46911;32.650;-16.902;2023-11-22T04:25:18;101909.69;;;16.92;51.82
61026;BME280;46911;32.650;-16.902;2023-11-22T04:27:21;101905.03;;;16.94;52.05
61026;BME280;46911;32.650;-16.902;2023-11-22T04:29:22;101892.00;;;16.88;52.65
61026;BME280;46911;32.650;-16.902;2023-11-22T04:31:23;101891.56;;;16.94;53.56
61026;BME280;46911;32.650;-16.902;2023-11-22T04:33:24;101883.38;;;16.96;53.21
61026;BME280;46911;32.650;-16.902;2023-11-22T04:35:28;101879.69;;;16.97;52.49
61026;BME280;46911;32.650;-16.902;2023-11-22T04:37:29;101882.88;;;17.02;52.42
61026;BME280;46911;32.650;-16.902;2023-11-22T04:39:33;101880.31;;;17.00;52.13
61026;BME280;46911;32.650;-16.902;2023-11-22T04:41:34;101890.25;;;17.00;52.09
61026;BME280;46911;32.650;-16.902;2023-11-22T04:43:35;101902.00;;;16.99;52.24
61026;BME280;46911;32.650;-16.902;2023-11-22T04:45:38;101892.56;;;16.93;52.82
61026;BME280;46911;32.650;-16.902;2023-11-22T04:47:42;101892.97;;;16.87;53.18
61026;BME280;46911;32.650;-16.902;2023-11-22T04:49:43;101899.13;;;16.89;53.07
61026;BME280;46911;32.650;-16.902;2023-11-22T04:51:44;101903.53;;;16.90;52.81
61026;BME280;46911;32.650;-16.902;2023-11-22T04:53:50;101909.91;;;16.89;52.74
61026;BME280;46911;32.650;-16.902;2023-11-22T04:55:52;101913.47;;;16.89;52.11
61026;BME280;46911;32.650;-16.902;2023-11-22T04:57:53;101917.91;;;16.90;51.75
61026;BME280;46911;32.650;-16.902;2023-11-22T04:59:54;101920.59;;;16.90;51.46
61026;BME280;46911;32.650;-16.902;2023-11-22T05:01:58;101906.69;;;16.84;51.52
61026;BME280;46911;32.650;-16.902;2023-11-22T05:03:59;101917.09;;;16.88;51.68
61026;BME280;46911;32.650;-16.902;2023-11-22T05:06:00;101905.94;;;16.82;52.15
61026;BME280;46911;32.650;-16.902;2023-11-22T05:08:01;101875.47;;;16.57;53.40
61026;BME280;46911;32.650;-16.902;2023-11-22T05:10:04;101915.34;;;16.76;54.30
61026;BME280;46911;32.650;-16.902;2023-11-22T05:12:09;101910.28;;;16.71;55.51
61026;BME280;46911;32.650;-16.902;2023-11-22T05:14:10;101916.78;;;16.69;55.69
61026;BME280;46911;32.650;-16.902;2023-11-22T05:16:11;101896.66;;;16.62;55.07
61026;BME280;46911;32.650;-16.902;2023-11-22T05:18:12;101908.59;;;16.70;53.54
61026;BME280;46911;32.650;-16.902;2023-11-22T05:20:16;101904.63;;;16.63;53.00
61026;BME280;46911;32.650;-16.902;2023-11-22T05:22:19;101904.63;;;16.63;53.25
61026;BME280;46911;32.650;-16.902;2023-11-22T05:24:22;101911.03;;;16.73;52.50
61026;BME280;46911;32.650;-16.902;2023-11-22T05:26:23;101906.88;;;16.69;52.48
61026;BME280;46911;32.650;-16.902;2023-11-22T05:28:26;101907.19;;;16.65;52.38
61026;BME280;46911;32.650;-16.902;2023-11-22T05:30:28;101911.63;;;16.66;52.56
61026;BME280;46911;32.650;-16.902;2023-11-22T05:32:30;101923.47;;;16.63;52.56
61026;BME280;46911;32.650;-16.902;2023-11-22T05:34:31;101922.75;;;16.61;52.44
61026;BME280;46911;32.650;-16.902;2023-11-22T05:36:33;101931.16;;;16.56;52.67
61026;BME280;46911;32.650;-16.902;2023-11-22T05:38:33;101925.16;;;16.53;52.55
61026;BME280;46911;32.650;-16.902;2023-11-22T05:40:34;101921.72;;;16.51;52.25
61026;BME280;46911;32.650;-16.902;2023-11-22T05:42:35;101928.06;;;16.50;52.15
61026;BME280;46911;32.650;-16.902;2023-11-22T05:44:39;101926.44;;;16.47;51.12
61026;BME280;46911;32.650;-16.902;2023-11-22T05:46:40;101914.53;;;16.38;50.60
61026;BME280;46911;32.650;-16.902;2023-11-22T05:48:40;101925.72;;;16.45;50.29
61026;BME280;46911;32.650;-16.902;2023-11-22T05:50:44;101925.06;;;16.42;50.61
61026;BME280;46911;32.650;-16.902;2023-11-22T05:52:46;101915.06;;;16.44;50.79
61026;BME280;46911;32.650;-16.902;2023-11-22T05:54:46;101925.84;;;16.44;51.16
61026;BME280;46911;32.650;-16.902;2023-11-22T05:56:50;101924.75;;;16.46;51.61
61026;BME280;46911;32.650;-16.902;2023-11-22T05:58:53;101907.44;;;16.37;52.43
61026;BME280;46911;32.650;-16.902;2023-11-22T06:00:54;101923.63;;;16.49;53.06
61026;BME280;46911;32.650;-16.902;2023-11-22T06:02:55;101921.94;;;16.48;53.28
61026;BME280;46911;32.650;-16.902;2023-11-22T06:04:56;101923.63;;;16.49;53.45
61026;BME280;46911;32.650;-16.902;2023-11-22T06:06:57;101911.59;;;16.42;53.79
61026;BME280;46911;32.650;-16.902;2023-11-22T06:08:58;101924.63;;;16.48;54.26
61026;BME280;46911;32.650;-16.902;2023-11-22T06:10:59;101932.59;;;16.49;53.89
61026;BME280;46911;32.650;-16.902;2023-11-22T06:13:00;101920.94;;;16.49;52.71
61026;BME280;46911;32.650;-16.902;2023-11-22T06:15:01;101926.78;;;16.55;51.23
61026;BME280;46911;32.650;-16.902;2023-11-22T06:17:04;101912.19;;;16.58;50.56
61026;BME280;46911;32.650;-16.902;2023-11-22T06:19:05;101924.47;;;16.62;50.38
61026;BME280;46911;32.650;-16.902;2023-11-22T06:21:08;101907.66;;;16.59;50.38
61026;BME280;46911;32.650;-16.902;2023-11-22T06:23:11;101919.50;;;16.69;50.60
61026;BME280;46911;32.650;-16.902;2023-11-22T06:25:16;101931.97;;;16.70;50.29
61026;BME280;46911;32.650;-16.902;2023-11-22T06:27:19;101927.91;;;16.64;49.41
61026;BME280;46911;32.650;-16.902;2023-11-22T06:29:22;101933.94;;;16.68;48.93
61026;BME280;46911;32.650;-16.902;2023-11-22T06:31:23;101933.53;;;16.61;49.21
61026;BME280;46911;32.650;-16.902;2023-11-22T06:33:24;101944.91;;;16.65;49.18
61026;BME280;46911;32.650;-16.902;2023-11-22T06:35:25;101939.13;;;16.58;49.58
61026;BME280;46911;32.650;-16.902;2023-11-22T06:37:26;101942.16;;;16.53;49.74
61026;BME280;46911;32.650;-16.902;2023-11-22T06:39:27;101957.53;;;16.64;50.04
61026;BME280;46911;32.650;-16.902;2023-11-22T06:41:28;101954.84;;;16.64;50.35
61026;BME280;46911;32.650;-16.902;2023-11-22T06:43:29;101957.53;;;16.64;50.89
61026;BME280;46911;32.650;-16.902;2023-11-22T06:45:30;101965.72;;;16.63;51.29
61026;BME280;46911;32.650;-16.902;2023-11-22T06:47:36;101964.25;;;16.59;51.94
61026;BME280;46911;32.650;-16.902;2023-11-22T06:49:37;101957.69;;;16.50;52.47
61026;BME280;46911;32.650;-16.902;2023-11-22T06:51:38;101972.75;;;16.52;53.01
61026;BME280;46911;32.650;-16.902;2023-11-22T06:53:39;101956.31;;;16.44;53.37
61026;BME280;46911;32.650;-16.902;2023-11-22T06:55:39;101965.88;;;16.48;53.98
61026;BME280;46911;32.650;-16.902;2023-11-22T06:57:40;101966.97;;;16.46;53.67
61026;BME280;46911;32.650;-16.902;2023-11-22T06:59:41;101961.16;;;16.39;52.49
61026;BME280;46911;32.650;-16.902;2023-11-22T07:01:42;101975.81;;;16.48;50.42
61026;BME280;46911;32.650;-16.902;2023-11-22T07:03:43;101960.38;;;16.50;49.94
61026;BME280;46911;32.650;-16.902;2023-11-22T07:05:44;101952.19;;;16.51;49.73
61026;BME280;46911;32.650;-16.902;2023-11-22T07:07:45;101941.88;;;16.45;49.45
61026;BME280;46911;32.650;-16.902;2023-11-22T07:09:51;101958.22;;;16.55;49.47
61026;BME280;46911;32.650;-16.902;2023-11-22T07:11:54;101966.06;;;16.58;49.68
61026;BME280;46911;32.650;-16.902;2023-11-22T07:13:58;101960.47;;;16.61;49.78
61026;BME280;46911;32.650;-16.902;2023-11-22T07:16:01;101957.00;;;16.59;49.97
61026;BME280;46911;32.650;-16.902;2023-11-22T07:18:02;101958.09;;;16.56;50.20
61026;BME280;46911;32.650;-16.902;2023-11-22T07:20:04;101950.25;;;16.53;50.18
61026;BME280;46911;32.650;-16.902;2023-11-22T07:22:13;101945.09;;;16.50;50.26
61026;BME280;46911;32.650;-16.902;2023-11-22T07:24:20;101952.69;;;16.56;49.81
61026;BME280;46911;32.650;-16.902;2023-11-22T07:26:23;101952.25;;;16.63;49.55
61026;BME280;46911;32.650;-16.902;2023-11-22T07:28:27;101941.72;;;16.60;49.10
61026;BME280;46911;32.650;-16.902;2023-11-22T07:30:31;101959.53;;;16.73;49.16
61026;BME280;46911;32.650;-16.902;2023-11-22T07:32:34;101953.63;;;16.68;48.84
61026;BME280;46911;32.650;-16.902;2023-11-22T07:34:36;101955.25;;;16.71;48.96
61026;BME280;46911;32.650;-16.902;2023-11-22T07:36:39;101957.81;;;16.72;48.75
61026;BME280;46911;32.650;-16.902;2023-11-22T07:38:42;101958.34;;;16.78;48.84
61026;BME280;46911;32.650;-16.902;2023-11-22T07:40:46;101960.19;;;16.77;49.15
61026;BME280;46911;32.650;-16.902;2023-11-22T07:42:48;101948.94;;;16.83;49.25
61026;BME280;46911;32.650;-16.902;2023-11-22T07:44:49;101947.84;;;16.86;49.34
61026;BME280;46911;32.650;-16.902;2023-11-22T07:46:57;101943.75;;;16.93;49.62
61026;BME280;46911;32.650;-16.902;2023-11-22T07:49:00;101941.47;;;17.00;49.94
61026;BME280;46911;32.650;-16.902;2023-11-22T07:51:06;101933.88;;;17.05;49.22
61026;BME280;46911;32.650;-16.902;2023-11-22T07:53:07;101933.53;;;17.10;48.62
61026;BME280;46911;32.650;-16.902;2023-11-22T07:55:28;101927.53;;;17.17;48.99
61026;BME280;46911;32.650;-16.902;2023-11-22T07:58:05;101931.72;;;17.21;48.98
61026;BME280;46911;32.650;-16.902;2023-11-22T08:00:23;101923.25;;;17.26;49.18
61026;BME280;46911;32.650;-16.902;2023-11-22T08:02:25;101925.50;;;17.32;49.20
61026;BME280;46911;32.650;-16.902;2023-11-22T08:04:26;101915.22;;;17.37;49.33
61026;BME280;46911;32.650;-16.902;2023-11-22T08:06:27;101899.03;;;17.37;49.47
61026;BME280;46911;32.650;-16.902;2023-11-22T08:08:28;101900.03;;;17.48;48.81
61026;BME280;46911;32.650;-16.902;2023-11-22T08:10:30;101914.75;;;17.66;47.52
61026;BME280;46911;32.650;-16.902;2023-11-22T08:12:33;101907.78;;;17.75;46.25
61026;BME280;46911;32.650;-16.902;2023-11-22T08:14:39;101911.34;;;17.87;46.53
61026;BME280;46911;32.650;-16.902;2023-11-22T08:16:43;101928.56;;;17.97;46.78
61026;BME280;46911;32.650;-16.902;2023-11-22T08:18:46;101926.94;;;18.06;46.98
61026;BME280;46911;32.650;-16.902;2023-11-22T08:20:50;101927.44;;;18.11;46.94
61026;BME280;46911;32.650;-16.902;2023-11-22T08:22:51;101931.34;;;18.18;47.03
61026;BME280;46911;32.650;-16.902;2023-11-22T08:24:52;101935.41;;;18.24;47.63
61026;BME280;46911;32.650;-16.902;2023-11-22T08:26:58;101938.69;;;18.28;48.17
61026;BME280;46911;32.650;-16.902;2023-11-22T08:29:04;101952.56;;;18.34;48.30
61026;BME280;46911;32.650;-16.902;2023-11-22T08:31:05;101949.38;;;18.40;48.21
61026;BME280;46911;32.650;-16.902;2023-11-22T08:33:10;101954.38;;;18.45;48.79
61026;BME280;46911;32.650;-16.902;2023-11-22T08:35:11;101952.03;;;18.52;48.94
61026;BME280;46911;32.650;-16.902;2023-11-22T08:37:12;101957.22;;;18.55;49.16
61026;BME280;46911;32.650;-16.902;2023-11-22T08:39:12;101954.97;;;18.60;48.88
61026;BME280;46911;32.650;-16.902;2023-11-22T08:41:14;101948.06;;;18.67;48.71
61026;BME280;46911;32.650;-16.902;2023-11-22T08:43:14;101952.44;;;18.80;48.49
61026;BME280;46911;32.650;-16.902;2023-11-22T08:45:16;101957.00;;;18.90;48.60
61026;BME280;46911;32.650;-16.902;2023-11-22T08:47:17;101950.09;;;18.98;48.26
61026;BME280;46911;32.650;-16.902;2023-11-22T08:49:23;101947.31;;;19.09;47.69
61026;BME280;46911;32.650;-16.902;2023-11-22T08:51:24;101951.44;;;19.24;47.53
61026;BME280;46911;32.650;-16.902;2023-11-22T08:53:27;101947.22;;;19.32;47.42
61026;BME280;46911;32.650;-16.902;2023-11-22T08:55:30;101947.50;;;19.50;47.11
61026;BME280;46911;32.650;-16.902;2023-11-22T08:57:37;101930.97;;;19.53;47.35
61026;BME280;46911;32.650;-16.902;2023-11-22T08:59:38;101944.03;;;19.69;47.30
61026;BME280;46911;32.650;-16.902;2023-11-22T09:01:42;101931.41;;;19.79;47.25
61026;BME280;46911;32.650;-16.902;2023-11-22T09:03:46;101923.88;;;19.83;48.05
61026;BME280;46911;32.650;-16.902;2023-11-22T09:05:47;101925.78;;;19.92;48.30
61026;BME280;46911;32.650;-16.902;2023-11-22T09:07:49;101937.97;;;20.07;49.16
61026;BME280;46911;32.650;-16.902;2023-11-22T09:09:59;101930.81;;;20.06;49.06
61026;BME280;46911;32.650;-16.902;2023-11-22T09:12:03;101935.28;;;20.17;48.67
61026;BME280;46911;32.650;-16.902;2023-11-22T09:14:07;101936.72;;;20.21;47.52
61026;BME280;46911;32.650;-16.902;2023-11-22T09:16:11;101938.28;;;20.24;46.84
61026;BME280;46911;32.650;-16.902;2023-11-22T09:18:13;101936.91;;;20.30;46.83
61026;BME280;46911;32.650;-16.902;2023-11-22T09:20:15;101939.19;;;20.34;46.92
61026;BME280;46911;32.650;-16.902;2023-11-22T09:22:16;101938.66;;;20.40;47.36
61026;BME280;46911;32.650;-16.902;2023-11-22T09:24:21;101937.38;;;20.45;47.41
61026;BME280;46911;32.650;-16.902;2023-11-22T09:26:22;101937.81;;;20.50;47.78
61026;BME280;46911;32.650;-16.902;2023-11-22T09:28:25;101939.78;;;20.57;48.11
61026;BME280;46911;32.650;-16.902;2023-11-22T09:30:31;101947.53;;;20.62;48.68
61026;BME280;46911;32.650;-16.902;2023-11-22T09:32:36;101947.97;;;20.67;48.78
61026;BME280;46911;32.650;-16.902;2023-11-22T09:34:39;101951.25;;;20.71;48.65
61026;BME280;46911;32.650;-16.902;2023-11-22T09:36:40;101964.72;;;20.72;47.01
61026;BME280;46911;32.650;-16.902;2023-11-22T09:38:41;101965.25;;;20.76;47.09
61026;BME280;46911;32.650;-16.902;2023-11-22T09:40:44;101962.56;;;20.86;46.74
61026;BME280;46911;32.650;-16.902;2023-11-22T09:42:46;101963.56;;;20.95;46.87
61026;BME280;46911;32.650;-16.902;2023-11-22T09:44:54;101960.44;;;21.09;47.54
61026;BME280;46911;32.650;-16.902;2023-11-22T09:46:56;101949.72;;;21.17;47.62
61026;BME280;46911;32.650;-16.902;2023-11-22T09:48:57;101952.13;;;21.30;47.67
61026;BME280;46911;32.650;-16.902;2023-11-22T09:53:25;101938.50;;;21.50;47.13
61026;BME280;46911;32.650;-16.902;2023-11-22T09:55:30;101931.84;;;21.54;46.70
61026;BME280;46911;32.650;-16.902;2023-11-22T09:57:34;101936.81;;;21.59;45.86
61026;BME280;46911;32.650;-16.902;2023-11-22T09:59:39;101944.94;;;21.68;45.27
61026;BME280;46911;32.650;-16.902;2023-11-22T10:01:44;101950.34;;;21.78;45.40
61026;BME280;46911;32.650;-16.902;2023-11-22T10:03:45;101940.84;;;21.92;46.01
61026;BME280;46911;32.650;-16.902;2023-11-22T10:05:49;101934.94;;;22.06;45.80
61026;BME280;46911;32.650;-16.902;2023-11-22T10:07:51;101944.53;;;22.29;46.69
61026;BME280;46911;32.650;-16.902;2023-11-22T10:10:01;101947.63;;;22.44;46.80
61026;BME280;46911;32.650;-16.902;2023-11-22T10:12:08;101954.56;;;22.56;46.33
61026;BME280;46911;32.650;-16.902;2023-11-22T10:14:09;101959.00;;;22.75;45.31
61026;BME280;46911;32.650;-16.902;2023-11-22T10:16:12;101952.25;;;22.97;44.10
61026;BME280;46911;32.650;-16.902;2023-11-22T10:18:14;101967.19;;;23.29;43.06
61026;BME280;46911;32.650;-16.902;2023-11-22T10:20:18;101961.75;;;23.82;41.92
61026;BME280;46911;32.650;-16.902;2023-11-22T10:22:22;101968.38;;;24.48;41.15
61026;BME280;46911;32.650;-16.902;2023-11-22T10:24:30;101969.03;;;25.10;39.43
61026;BME280;46911;32.650;-16.902;2023-11-22T10:26:34;101972.06;;;25.81;37.00
61026;BME280;46911;32.650;-16.902;2023-11-22T10:28:36;101974.63;;;26.30;36.12